createdAt,value
2022-12-12T00:01:25.696Z,98987.00
2022-12-12T00:03:54.372Z,98987.63
2022-12-12T00:06:25.466Z,98988.41
2022-12-12T00:08:53.731Z,98996.41
2022-12-12T00:11:22.631Z,99007.53
2022-12-12T00:13:50.956Z,99000.47
2022-12-12T00:16:19.320Z,99003.94
2022-12-12T00:18:47.773Z,99015.34
2022-12-12T00:21:18.942Z,99018.03
2022-12-12T00:23:48.735Z,99019.59
2022-12-12T00:26:20.231Z,99022.41
2022-12-12T00:28:49.186Z,99022.88
2022-12-12T00:31:18.058Z,99028.97
2022-12-12T00:33:48.129Z,99031.97
2022-12-12T00:36:16.664Z,99029.47
2022-12-12T00:38:44.827Z,99027.72
2022-12-12T00:41:14.596Z,99036.34
2022-12-12T00:43:42.782Z,99032.28
2022-12-12T00:46:14.786Z,99041.81
2022-12-12T00:48:43.086Z,99036.91
2022-12-12T00:51:14.928Z,99045.56
2022-12-12T00:53:43.018Z,99044.59
2022-12-12T00:56:11.226Z,99054.78
2022-12-12T00:58:40.740Z,99053.06
2022-12-12T01:01:14.171Z,99065.56
2022-12-12T01:03:43.586Z,99053.69
2022-12-12T01:06:11.773Z,99064.34
2022-12-12T01:08:40.884Z,99055.56
2022-12-12T01:11:11.298Z,99049.13
2022-12-12T01:13:41.428Z,99060.84
2022-12-12T01:16:10.336Z,99057.13
2022-12-12T01:18:38.825Z,99066.63
2022-12-12T01:21:09.692Z,99080.91
2022-12-12T01:23:38.234Z,99085.19
2022-12-12T01:26:09.651Z,99068.59
2022-12-12T01:28:38.023Z,99057.31
2022-12-12T01:31:08.369Z,99061.66
2022-12-12T01:33:37.257Z,99052.25
2022-12-12T01:36:06.597Z,99057.16
2022-12-12T01:38:34.722Z,99057.84
2022-12-12T01:41:02.908Z,99058.97
2022-12-12T01:43:31.896Z,99059.22
2022-12-12T01:46:37.275Z,99076.50
2022-12-12T01:49:13.224Z,99058.09
2022-12-12T01:51:42.322Z,99062.22
2022-12-12T01:54:12.840Z,99059.00
2022-12-12T01:56:44.250Z,99063.72
2022-12-12T01:59:15.865Z,99073.59
2022-12-12T02:01:45.690Z,99069.63
2022-12-12T02:04:15.471Z,99073.53
2022-12-12T02:06:44.668Z,99074.97
2022-12-12T02:09:14.974Z,99076.03
2022-12-12T02:11:46.599Z,99067.63
2022-12-12T02:14:17.895Z,99087.31
2022-12-12T02:17:05.877Z,99078.16
2022-12-12T02:20:06.195Z,99071.19
2022-12-12T02:22:54.824Z,99080.75
2022-12-12T02:25:58.815Z,99088.16
2022-12-12T02:29:08.642Z,99085.81
2022-12-12T02:31:44.358Z,99100.03
2022-12-12T02:34:20.991Z,99093.06
2022-12-12T02:36:58.033Z,99106.03
2022-12-12T02:39:32.122Z,99100.03
2022-12-12T02:42:06.846Z,99098.56
2022-12-12T02:44:41.171Z,99094.63
2022-12-12T02:47:17.102Z,99103.97
2022-12-12T02:49:50.067Z,99092.44
2022-12-12T02:52:19.489Z,99091.22
2022-12-12T02:54:48.668Z,99090.47
2022-12-12T02:57:19.370Z,99096.19
2022-12-12T02:59:50.473Z,99078.31
2022-12-12T03:02:48.613Z,99085.19
2022-12-12T03:05:56.272Z,99085.97
2022-12-12T03:08:39.285Z,99115.19
2022-12-12T03:11:12.317Z,99108.38
2022-12-12T03:13:49.030Z,99116.78
2022-12-12T03:16:27.771Z,99126.50
2022-12-12T03:19:05.171Z,99127.59
2022-12-12T03:21:41.005Z,99131.28
2022-12-12T03:24:15.993Z,99134.28
2022-12-12T03:26:50.375Z,99136.69
2022-12-12T03:29:23.177Z,99139.31
2022-12-12T03:31:57.877Z,99142.75
2022-12-12T03:34:34.789Z,99145.22
2022-12-12T03:37:08.070Z,99140.59
2022-12-12T03:39:41.786Z,99135.19
2022-12-12T03:42:14.480Z,99142.75
2022-12-12T03:44:48.223Z,99135.28
2022-12-12T03:47:24.769Z,99136.13
2022-12-12T03:49:59.033Z,99136.72
2022-12-12T03:52:34.855Z,99141.66
2022-12-12T03:55:09.712Z,99157.78
2022-12-12T03:57:42.658Z,99160.38
2022-12-12T04:00:15.481Z,99155.88
2022-12-12T04:02:51.961Z,99162.16
2022-12-12T04:05:25.399Z,99160.97
2022-12-12T04:07:59.851Z,99160.88
2022-12-12T04:10:52.183Z,99151.16
2022-12-12T04:13:32.580Z,99164.22
2022-12-12T04:16:05.439Z,99153.50
2022-12-12T04:18:42.376Z,99184.78
2022-12-12T04:21:47.883Z,99181.41
2022-12-12T04:24:24.583Z,99173.75
2022-12-12T04:26:59.061Z,99176.00
2022-12-12T04:29:39.701Z,99183.97
2022-12-12T04:32:20.074Z,99186.91
2022-12-12T04:34:53.742Z,99184.97
2022-12-12T04:37:26.054Z,99187.50
2022-12-12T04:39:57.986Z,99194.19
2022-12-12T04:42:29.882Z,99197.16
2022-12-12T04:45:04.940Z,99176.81
2022-12-12T04:47:35.116Z,99183.59
2022-12-12T04:50:04.739Z,99191.06
2022-12-12T04:52:35.904Z,99204.81
2022-12-12T04:55:11.283Z,99214.94
2022-12-12T04:57:43.985Z,99225.03
2022-12-12T05:00:15.045Z,99229.88
2022-12-12T05:02:51.541Z,99242.06
2022-12-12T05:05:24.336Z,99254.16
2022-12-12T05:07:58.328Z,99265.47
2022-12-12T05:10:26.580Z,99278.31
2022-12-12T05:12:59.978Z,99292.88
2022-12-12T05:15:29.807Z,99294.63
2022-12-12T05:18:02.879Z,99315.06
2022-12-12T05:20:31.391Z,99318.34
2022-12-12T05:23:00.885Z,99315.63
2022-12-12T05:25:29.100Z,99336.75
2022-12-12T05:27:57.493Z,99337.00
2022-12-12T05:30:26.203Z,99340.22
2022-12-12T05:32:54.372Z,99350.44
2022-12-12T05:35:23.030Z,99338.94
2022-12-12T05:37:52.104Z,99328.09
2022-12-12T05:40:22.824Z,99334.16
2022-12-12T05:42:51.634Z,99325.81
2022-12-12T05:45:20.152Z,99357.34
2022-12-12T05:47:48.253Z,99355.47
2022-12-12T05:50:16.407Z,99364.50
2022-12-12T05:52:45.193Z,99367.19
2022-12-12T05:55:14.091Z,99370.69
2022-12-12T05:57:43.807Z,99367.00
2022-12-12T06:00:12.943Z,99380.28
2022-12-12T06:02:41.130Z,99373.34
2022-12-12T06:05:10.959Z,99367.03
2022-12-12T06:07:39.576Z,99375.63
2022-12-12T06:10:09.288Z,99394.31
2022-12-12T06:12:37.424Z,99380.16
2022-12-12T06:15:08.239Z,99373.53
2022-12-12T06:17:36.482Z,99371.28
2022-12-12T06:20:05.506Z,99373.06
2022-12-12T06:22:35.116Z,99375.91
2022-12-12T06:25:03.525Z,99409.00
2022-12-12T06:27:31.660Z,99392.06
2022-12-12T06:30:04.274Z,99379.78
2022-12-12T06:33:01.073Z,99374.75
2022-12-12T06:35:35.289Z,99378.28
2022-12-12T06:38:03.691Z,99405.06
2022-12-12T06:40:31.799Z,99404.09
2022-12-12T06:42:59.879Z,99405.75
2022-12-12T06:45:28.038Z,99412.06
2022-12-12T06:47:57.528Z,99420.50
2022-12-12T06:50:25.598Z,99436.53
2022-12-12T06:52:53.691Z,99449.13
2022-12-12T06:55:21.810Z,99447.34
2022-12-12T06:57:50.220Z,99446.69
2022-12-12T07:00:18.998Z,99443.28
2022-12-12T07:02:47.193Z,99440.16
2022-12-12T07:05:16.977Z,99445.50
2022-12-12T07:07:45.449Z,99463.28
2022-12-12T07:10:13.650Z,99456.25
2022-12-12T07:12:45.436Z,99461.78
2022-12-12T07:15:15.740Z,99453.44
2022-12-12T07:17:43.879Z,99452.28
2022-12-12T07:20:12.679Z,99443.47
2022-12-12T07:22:43.061Z,99446.38
2022-12-12T07:25:11.638Z,99458.81
2022-12-12T07:27:39.959Z,99452.25
2022-12-12T07:30:09.114Z,99452.63
2022-12-12T07:32:37.306Z,99468.72
2022-12-12T07:35:05.798Z,99470.28
2022-12-12T07:37:33.990Z,99477.34
2022-12-12T07:40:03.476Z,99487.50
2022-12-12T07:42:31.773Z,99490.13
2022-12-12T07:44:59.961Z,99510.94
2022-12-12T07:47:28.055Z,99500.63
2022-12-12T07:49:56.238Z,99506.72
2022-12-12T07:52:24.513Z,99510.72
2022-12-12T07:54:52.662Z,99510.66
2022-12-12T07:57:22.212Z,99520.03
2022-12-12T07:59:50.338Z,99525.56
2022-12-12T08:02:18.536Z,99525.59
2022-12-12T08:04:46.915Z,99524.31
2022-12-12T08:07:15.074Z,99538.16
2022-12-12T08:09:43.162Z,99545.81
2022-12-12T08:12:11.454Z,99551.88
2022-12-12T08:14:41.096Z,99550.91
2022-12-12T08:17:09.292Z,99548.78
2022-12-12T08:19:37.544Z,99549.00
2022-12-12T08:22:05.789Z,99552.91
2022-12-12T08:24:34.010Z,99544.59
2022-12-12T08:27:02.245Z,99543.34
2022-12-12T08:29:30.350Z,99552.28
2022-12-12T08:32:00.020Z,99536.03
2022-12-12T08:34:28.154Z,99535.78
2022-12-12T08:36:56.240Z,99539.38
2022-12-12T08:39:24.663Z,99531.47
2022-12-12T08:41:53.270Z,99530.91
2022-12-12T08:44:22.248Z,99537.19
2022-12-12T08:46:50.792Z,99532.00
2022-12-12T08:49:20.358Z,99534.69
2022-12-12T08:51:48.487Z,99545.56
2022-12-12T08:54:16.648Z,99544.13
2022-12-12T08:56:44.861Z,99552.31
2022-12-12T08:59:13.373Z,99547.16
2022-12-12T09:01:42.283Z,99560.97
2022-12-12T09:04:11.564Z,99563.63
2022-12-12T09:06:41.042Z,99554.00
2022-12-12T09:09:09.159Z,99561.03
2022-12-12T09:11:37.244Z,99580.22
2022-12-12T09:14:05.532Z,99567.13
2022-12-12T09:16:33.724Z,99571.84
2022-12-12T09:19:01.876Z,99568.69
2022-12-12T09:21:30.033Z,99583.31
2022-12-12T09:23:59.767Z,99566.84
2022-12-12T09:26:27.921Z,99568.44
2022-12-12T09:28:56.145Z,99572.78
2022-12-12T09:31:24.453Z,99580.63
2022-12-12T09:33:52.673Z,99579.50
2022-12-12T09:36:21.178Z,99578.06
2022-12-12T09:38:49.345Z,99567.28
2022-12-12T09:41:21.985Z,99565.22
2022-12-12T09:43:57.207Z,99566.34
2022-12-12T09:46:39.137Z,99572.50
2022-12-12T09:49:15.601Z,99577.41
2022-12-12T09:51:47.256Z,99573.28
2022-12-12T09:54:18.028Z,99579.03
2022-12-12T09:57:13.059Z,99580.88
2022-12-12T09:59:50.412Z,99588.34
2022-12-12T10:02:41.403Z,99586.78
2022-12-12T10:05:24.263Z,99586.59
2022-12-12T10:08:00.527Z,99592.47
2022-12-12T10:10:34.106Z,99587.16
2022-12-12T10:13:06.327Z,99583.63
2022-12-12T10:15:39.350Z,99593.22
2022-12-12T10:18:13.823Z,99600.41
2022-12-12T10:20:48.791Z,99591.97
2022-12-12T10:23:25.546Z,99583.78
2022-12-12T10:25:58.017Z,99580.81
2022-12-12T10:28:29.611Z,99589.16
2022-12-12T10:31:17.947Z,99590.38
2022-12-12T10:34:03.077Z,99583.66
2022-12-12T10:36:46.619Z,99577.56
2022-12-12T10:39:22.698Z,99581.72
2022-12-12T10:41:58.501Z,99581.09
2022-12-12T10:44:47.616Z,99575.94
2022-12-12T10:47:16.020Z,99580.44
2022-12-12T10:49:44.299Z,99586.41
2022-12-12T10:52:19.227Z,99582.16
2022-12-12T10:54:52.307Z,99576.63
2022-12-12T10:57:24.731Z,99580.81
2022-12-12T10:59:56.035Z,99571.53
2022-12-12T11:02:30.192Z,99563.19
2022-12-12T11:05:11.456Z,99568.44
2022-12-12T11:07:41.882Z,99569.22
2022-12-12T11:10:27.946Z,99571.28
2022-12-12T11:13:02.113Z,99558.41
2022-12-12T11:15:42.452Z,99551.53
2022-12-12T11:18:16.291Z,99538.78
2022-12-12T11:20:50.979Z,99546.97
2022-12-12T11:23:22.188Z,99553.56
2022-12-12T11:25:56.680Z,99551.66
2022-12-12T11:28:29.771Z,99560.94
2022-12-12T11:31:03.387Z,99550.88
2022-12-12T11:33:35.681Z,99555.78
2022-12-12T11:36:06.662Z,99563.00
2022-12-12T11:38:41.078Z,99569.28
2022-12-12T11:41:11.214Z,99565.97
2022-12-12T11:43:53.811Z,99572.09
2022-12-12T11:46:26.163Z,99573.38
2022-12-12T11:49:00.514Z,99586.41
2022-12-12T11:51:34.816Z,99589.53
2022-12-12T11:54:04.685Z,99580.22
2022-12-12T11:56:42.682Z,99585.72
2022-12-12T11:59:30.538Z,99591.31
2022-12-12T12:02:16.856Z,99588.00
2022-12-12T12:04:54.855Z,99589.22
2022-12-12T12:07:50.820Z,99591.41
2022-12-12T12:10:33.604Z,99594.59
2022-12-12T12:13:11.208Z,99591.09
2022-12-12T12:15:47.830Z,99600.53
2022-12-12T12:18:30.231Z,99599.63
2022-12-12T12:21:21.813Z,99598.22
2022-12-12T12:23:59.423Z,99604.19
2022-12-12T12:26:36.161Z,99604.81
2022-12-12T12:29:19.031Z,99603.88
2022-12-12T12:31:59.886Z,99606.97
2022-12-12T12:34:36.993Z,99602.84
2022-12-12T12:37:21.844Z,99605.63
2022-12-12T12:40:01.252Z,99606.50
2022-12-12T12:42:49.625Z,99608.94
2022-12-12T12:45:23.577Z,99609.38
2022-12-12T12:47:57.338Z,99610.72
2022-12-12T12:50:32.742Z,99609.78
2022-12-12T12:53:06.293Z,99607.41
2022-12-12T12:55:42.119Z,99616.66
2022-12-12T12:58:19.798Z,99611.94
2022-12-12T13:00:54.377Z,99604.84
2022-12-12T13:03:27.714Z,99605.59
2022-12-12T13:06:02.460Z,99600.28
2022-12-12T13:08:36.094Z,99595.78
2022-12-12T13:11:09.944Z,99593.09
2022-12-12T13:13:41.519Z,99603.00
2022-12-12T13:16:14.572Z,99609.34
2022-12-12T13:18:46.160Z,99616.28
2022-12-12T13:21:23.807Z,99612.22
2022-12-12T13:23:57.908Z,99609.84
2022-12-12T13:26:34.537Z,99612.53
2022-12-12T13:29:07.908Z,99610.19
2022-12-12T13:31:56.363Z,99619.91
2022-12-12T13:34:27.840Z,99620.69
2022-12-12T13:36:59.834Z,99619.75
2022-12-12T13:39:31.187Z,99619.91
2022-12-12T13:42:02.146Z,99630.03
2022-12-12T13:44:37.159Z,99627.19
2022-12-12T13:47:06.212Z,99636.78
2022-12-12T13:49:47.099Z,99635.19
2022-12-12T13:52:33.544Z,99632.19
2022-12-12T13:55:23.489Z,99626.97
2022-12-12T13:58:21.146Z,99629.78
2022-12-12T14:00:49.699Z,99632.41
2022-12-12T14:03:31.632Z,99628.72
2022-12-12T14:06:11.954Z,99629.53
2022-12-12T14:08:50.358Z,99632.50
2022-12-12T14:11:39.404Z,99642.34
2022-12-12T14:14:23.095Z,99641.81
2022-12-12T14:16:56.480Z,99652.47
2022-12-12T14:19:36.048Z,99647.22
2022-12-12T14:22:04.449Z,99637.47
2022-12-12T14:25:08.691Z,99636.31
2022-12-12T14:28:16.004Z,99641.63
2022-12-12T14:30:55.305Z,99651.09
2022-12-12T14:34:15.699Z,99648.56
2022-12-12T14:37:19.001Z,99643.44
2022-12-12T14:40:11.068Z,99648.59
2022-12-12T14:43:19.563Z,99659.44
2022-12-12T14:45:40.048Z,99650.19
2022-12-12T14:48:33.320Z,99656.91
2022-12-12T14:51:06.191Z,99647.03
2022-12-12T14:53:48.414Z,99645.16
2022-12-12T14:56:19.054Z,99646.72
2022-12-12T14:58:57.321Z,99639.22
2022-12-12T15:01:32.444Z,99639.53
2022-12-12T15:04:03.890Z,99643.78
2022-12-12T15:06:34.632Z,99642.41
2022-12-12T15:09:19.194Z,99652.69
2022-12-12T15:11:48.437Z,99653.13
2022-12-12T15:14:21.193Z,99647.72
2022-12-12T15:16:53.527Z,99656.41
2022-12-12T15:19:26.691Z,99657.00
2022-12-12T15:21:55.218Z,99659.06
2022-12-12T15:24:25.972Z,99656.88
2022-12-12T15:26:57.091Z,99651.97
2022-12-12T15:29:29.239Z,99652.16
2022-12-12T15:32:01.583Z,99662.31
2022-12-12T15:34:36.195Z,99651.28
2022-12-12T15:37:21.745Z,99650.97
2022-12-12T15:40:03.803Z,99648.22
2022-12-12T15:42:31.948Z,99641.22
2022-12-12T15:45:02.047Z,99640.63
2022-12-12T15:47:30.460Z,99640.81
2022-12-12T15:50:08.086Z,99638.16
2022-12-12T15:52:36.875Z,99631.63
2022-12-12T15:55:06.462Z,99629.16
2022-12-12T15:57:46.343Z,99636.56
2022-12-12T16:00:30.392Z,99632.81
2022-12-12T16:03:00.672Z,99631.63
2022-12-12T16:05:32.108Z,99624.22
2022-12-12T16:08:32.031Z,99632.44
2022-12-12T16:11:03.031Z,99633.03
2022-12-12T16:13:38.615Z,99634.59
2022-12-12T16:16:49.112Z,99631.03
2022-12-12T16:19:37.170Z,99646.63
2022-12-12T16:22:08.128Z,99649.69
2022-12-12T16:24:48.213Z,99654.34
2022-12-12T16:27:16.536Z,99651.75
2022-12-12T16:29:44.916Z,99649.28
2022-12-12T16:32:17.272Z,99651.06
2022-12-12T16:34:46.950Z,99650.75
2022-12-12T16:37:16.905Z,99657.38
2022-12-12T16:39:45.475Z,99665.81
2022-12-12T16:42:15.330Z,99657.28
2022-12-12T16:44:43.664Z,99649.41
2022-12-12T16:47:23.534Z,99656.09
2022-12-12T16:49:53.214Z,99650.28
2022-12-12T16:52:21.867Z,99659.25
2022-12-12T16:54:53.915Z,99667.97
2022-12-12T16:57:23.516Z,99662.72
2022-12-12T16:59:51.850Z,99656.31
2022-12-12T17:02:21.910Z,99659.47
2022-12-12T17:04:51.074Z,99662.41
2022-12-12T17:07:20.708Z,99659.47
2022-12-12T17:09:48.898Z,99654.53
2022-12-12T17:12:17.134Z,99653.25
2022-12-12T17:14:45.288Z,99648.63
2022-12-12T17:17:13.456Z,99641.97
2022-12-12T17:19:41.883Z,99642.13
2022-12-12T17:22:12.988Z,99652.81
2022-12-12T17:24:42.883Z,99666.28
2022-12-12T17:27:11.056Z,99662.13
2022-12-12T17:29:39.243Z,99670.13
2022-12-12T17:32:08.503Z,99664.34
2022-12-12T17:34:36.933Z,99665.69
2022-12-12T17:37:05.112Z,99663.69
2022-12-12T17:39:33.222Z,99666.56
2022-12-12T17:42:02.853Z,99655.06
2022-12-12T17:44:32.039Z,99656.84
2022-12-12T17:47:00.159Z,99659.81
2022-12-12T17:49:28.412Z,99661.59
2022-12-12T17:51:56.662Z,99669.56
2022-12-12T17:54:24.858Z,99676.81
2022-12-12T17:56:53.075Z,99678.59
2022-12-12T17:59:22.672Z,99675.50
2022-12-12T18:01:54.051Z,99676.69
2022-12-12T18:04:27.724Z,99681.13
2022-12-12T18:06:56.359Z,99673.94
2022-12-12T18:09:24.531Z,99674.94
2022-12-12T18:11:52.698Z,99676.19
2022-12-12T18:14:22.253Z,99668.03
2022-12-12T18:16:52.437Z,99672.16
2022-12-12T18:19:21.228Z,99671.31
2022-12-12T18:22:00.719Z,99665.38
2022-12-12T18:24:30.474Z,99664.16
2022-12-12T18:26:59.890Z,99669.53
2022-12-12T18:29:29.584Z,99666.09
2022-12-12T18:31:57.837Z,99672.03
2022-12-12T18:34:26.519Z,99674.91
2022-12-12T18:36:54.650Z,99671.81
2022-12-12T18:39:22.822Z,99677.47
2022-12-12T18:41:52.145Z,99679.41
2022-12-12T18:44:20.502Z,99676.91
2022-12-12T18:46:52.626Z,99672.47
2022-12-12T18:49:20.884Z,99658.41
2022-12-12T18:51:49.029Z,99655.13
2022-12-12T18:54:17.583Z,99655.91
2022-12-12T18:56:46.559Z,99645.19
2022-12-12T18:59:16.131Z,99650.00
2022-12-12T19:01:44.768Z,99639.41
2022-12-12T19:04:23.559Z,99631.94
2022-12-12T19:06:52.279Z,99626.16
2022-12-12T19:09:21.116Z,99623.88
2022-12-12T19:11:49.325Z,99638.59
2022-12-12T19:14:18.616Z,99633.47
2022-12-12T19:16:47.243Z,99645.88
2022-12-12T19:19:15.947Z,99656.16
2022-12-12T19:21:46.455Z,99655.06
2022-12-12T19:24:15.209Z,99659.00
2022-12-12T19:26:47.716Z,99658.84
2022-12-12T19:29:18.358Z,99649.59
2022-12-12T19:31:46.984Z,99662.03
2022-12-12T19:34:16.911Z,99662.31
2022-12-12T19:36:46.970Z,99673.63
2022-12-12T19:39:15.133Z,99670.50
2022-12-12T19:41:43.504Z,99672.25
2022-12-12T19:44:13.550Z,99677.78
2022-12-12T19:46:43.433Z,99678.16
2022-12-12T19:49:13.695Z,99681.81
2022-12-12T19:51:42.866Z,99680.84
2022-12-12T19:54:15.503Z,99679.25
2022-12-12T19:56:44.585Z,99683.06
2022-12-12T19:59:14.008Z,99680.31
2022-12-12T20:01:43.211Z,99675.81
2022-12-12T20:04:16.662Z,99670.97
2022-12-12T20:06:46.451Z,99661.88
2022-12-12T20:09:18.008Z,99663.44
2022-12-12T20:11:46.926Z,99662.53
2022-12-12T20:14:16.774Z,99666.50
2022-12-12T20:16:45.450Z,99665.28
2022-12-12T20:19:14.612Z,99666.06
2022-12-12T20:22:00.737Z,99660.34
2022-12-12T20:24:31.955Z,99659.75
2022-12-12T20:27:00.705Z,99658.16
2022-12-12T20:29:29.171Z,99664.78
2022-12-12T20:31:59.866Z,99672.34
2022-12-12T20:34:29.119Z,99666.41
2022-12-12T20:36:57.462Z,99666.41
2022-12-12T20:39:26.172Z,99676.28
2022-12-12T20:41:57.022Z,99670.84
2022-12-12T20:44:25.800Z,99669.06
2022-12-12T20:46:55.270Z,99678.66
2022-12-12T20:49:24.856Z,99670.28
2022-12-12T20:51:56.533Z,99673.72
2022-12-12T20:54:25.962Z,99673.06
2022-12-12T20:56:56.019Z,99668.50
2022-12-12T20:59:24.800Z,99649.84
2022-12-12T21:01:53.939Z,99658.97
2022-12-12T21:04:22.555Z,99664.78
2022-12-12T21:06:51.648Z,99663.09
2022-12-12T21:09:24.772Z,99659.47
2022-12-12T21:11:56.977Z,99678.84
2022-12-12T21:14:25.554Z,99675.16
2022-12-12T21:16:53.896Z,99671.09
2022-12-12T21:19:23.437Z,99670.13
2022-12-12T21:21:52.306Z,99658.88
2022-12-12T21:24:20.885Z,99649.75
2022-12-12T21:26:49.202Z,99627.91
2022-12-12T21:29:19.187Z,99633.22
2022-12-12T21:31:51.654Z,99642.50
2022-12-12T21:34:22.612Z,99655.00
2022-12-12T21:36:54.897Z,99647.03
2022-12-12T21:39:25.092Z,99655.91
2022-12-12T21:41:53.305Z,99650.97
2022-12-12T21:44:22.906Z,99634.59
2022-12-12T21:46:51.095Z,99649.44
2022-12-12T21:49:27.815Z,99632.78
2022-12-12T21:51:57.566Z,99619.75
2022-12-12T21:54:26.527Z,99636.63
2022-12-12T21:56:54.780Z,99644.38
2022-12-12T21:59:25.808Z,99655.09
2022-12-12T22:01:56.056Z,99655.75
2022-12-12T22:04:24.690Z,99668.31
2022-12-12T22:06:53.092Z,99674.69
2022-12-12T22:09:21.201Z,99694.38
2022-12-12T22:11:52.117Z,99702.41
2022-12-12T22:14:32.651Z,99696.31
2022-12-12T22:17:00.758Z,99707.22
2022-12-12T22:19:29.141Z,99733.47
2022-12-12T22:21:57.300Z,99719.00
2022-12-12T22:24:26.198Z,99714.47
2022-12-12T22:26:54.343Z,99691.44
2022-12-12T22:29:22.567Z,99698.97
2022-12-12T22:31:52.514Z,99688.91
2022-12-12T22:34:23.470Z,99681.28
2022-12-12T22:36:52.452Z,99677.34
2022-12-12T22:39:23.639Z,99698.03
2022-12-12T22:41:52.127Z,99690.63
2022-12-12T22:44:22.473Z,99680.09
2022-12-12T22:46:54.222Z,99677.50
2022-12-12T22:49:25.848Z,99685.94
2022-12-12T22:51:54.962Z,99698.13
2022-12-12T22:54:23.415Z,99697.31
2022-12-12T22:56:51.531Z,99703.69
2022-12-12T22:59:19.656Z,99699.22
2022-12-12T23:01:47.778Z,99693.44
2022-12-12T23:04:17.522Z,99691.59
2022-12-12T23:06:46.031Z,99696.69
2022-12-12T23:09:16.655Z,99686.66
2022-12-12T23:11:45.935Z,99692.78
2022-12-12T23:14:16.289Z,99707.38
2022-12-12T23:16:45.269Z,99722.16
2022-12-12T23:19:16.017Z,99730.41
2022-12-12T23:21:46.403Z,99730.66
2022-12-12T23:24:15.189Z,99728.81
2022-12-12T23:26:43.737Z,99719.59
2022-12-12T23:29:16.394Z,99704.78
2022-12-12T23:31:44.780Z,99706.91
2022-12-12T23:34:16.424Z,99705.34
2022-12-12T23:36:45.998Z,99713.00
2022-12-12T23:39:15.174Z,99713.81
2022-12-12T23:41:43.410Z,99728.34
2022-12-12T23:44:13.293Z,99728.09
2022-12-12T23:46:41.973Z,99735.50
2022-12-12T23:49:16.168Z,99751.09
2022-12-12T23:51:47.271Z,99742.09
2022-12-12T23:54:17.345Z,99744.22
2022-12-12T23:56:45.930Z,99747.38
2022-12-12T23:59:17.942Z,99750.28
